Terminal Aerodrome Forecast
Issued by NWS Sioux Falls, SD

Home | Current Version | Previous Version | Text Only | Print | Product List | Glossary On
Versions: 1 2 3 4 5 6 7 8 9 10 11 12 13 14 15 16 17
263
FTUS43 KFSD 110520
TAFFSD
TAF
KFSD 110520Z 1106/1206 24005KT P6SM SCT120 BKN200
     FM111100 29013G19KT P6SM BKN150
     FM111500 32019G32KT 6SM -SHSN OVC025
      TEMPO 1116/1118 OVC018
     FM111900 33023G35KT P6SM OVC023
     FM120000 33014G24KT P6SM SCT045
     FM120300 34013KT P6SM FEW150=

USA.gov is the U.S. government's official web portal to all federal, state and local government web resources and services.